Time;durP1;ratioP1;P1;durP2;ratioP2;P2;SDS_P1;SDS_P2;PMS_P1;PMS_P2;Temp;Humidity;BMP_temperature;BMP_pressure;BME280_temperature;BME280_humidity;BME280_pressure;Samples;Min_cycle;Max_cycle;Signal;HPM_P1;HPM_P2
2022/11/22 00:00:29;;;;;;;6.45;3.00;;;;;;;;;;4987680;28;20030;-79
2022/11/22 00:02:55;;;;;;;6.47;3.10;;;;;;;;;;4987859;28;20472;-79
2022/11/22 00:05:20;;;;;;;6.13;2.70;;;;;;;;;;4988917;28;20032;-79
2022/11/22 00:07:46;;;;;;;6.32;2.67;;;;;;;;;;4983676;28;20030;-80
2022/11/22 00:10:13;;;;;;;6.20;3.05;;;;;;;;;;5007092;28;20123;-79
2022/11/22 00:12:38;;;;;;;5.50;3.15;;;;;;;;;;4991802;28;20030;-80
2022/11/22 00:15:06;;;;;;;5.72;3.03;;;;;;;;;;5002539;28;20030;-80
2022/11/22 00:17:32;;;;;;;8.73;3.10;;;;;;;;;;4990165;28;20384;-80
2022/11/22 00:19:57;;;;;;;6.03;2.75;;;;;;;;;;4991395;28;20033;-80
2022/11/22 00:22:23;;;;;;;5.55;3.15;;;;;;;;;;4991476;28;20046;-79
2022/11/22 00:24:50;;;;;;;7.28;3.50;;;;;;;;;;4989963;28;20457;-79
2022/11/22 00:27:16;;;;;;;7.38;3.42;;;;;;;;;;5008919;28;20113;-79
2022/11/22 00:29:41;;;;;;;8.85;3.60;;;;;;;;;;5003890;28;20450;-80
2022/11/22 00:32:07;;;;;;;6.43;3.45;;;;;;;;;;4987660;28;20434;-79
2022/11/22 00:34:32;;;;;;;10.02;3.50;;;;;;;;;;4989005;28;20371;-80
2022/11/22 00:36:57;;;;;;;8.45;3.40;;;;;;;;;;4986974;28;20113;-79
2022/11/22 00:39:22;;;;;;;9.15;3.55;;;;;;;;;;5003475;28;20152;-80
2022/11/22 00:41:48;;;;;;;8.27;3.28;;;;;;;;;;4992154;28;20026;-80
2022/11/22 00:44:13;;;;;;;8.40;3.13;;;;;;;;;;4989406;28;20072;-81
2022/11/22 00:46:38;;;;;;;8.45;3.15;;;;;;;;;;4988853;28;20029;-79
2022/11/22 00:49:04;;;;;;;7.00;3.17;;;;;;;;;;4990995;28;20022;-81
2022/11/22 00:51:29;;;;;;;8.15;3.17;;;;;;;;;;4987365;28;20038;-79
2022/11/22 00:53:54;;;;;;;6.50;3.20;;;;;;;;;;5004505;28;20026;-80
2022/11/22 00:56:20;;;;;;;7.03;3.10;;;;;;;;;;5003560;28;20033;-79
2022/11/22 00:58:45;;;;;;;7.28;2.88;;;;;;;;;;5007794;28;20560;-80
2022/11/22 01:01:10;;;;;;;9.30;3.10;;;;;;;;;;4991671;28;20048;-79
2022/11/22 01:03:36;;;;;;;7.20;3.00;;;;;;;;;;4985928;28;20038;-80
2022/11/22 01:06:01;;;;;;;7.00;2.95;;;;;;;;;;4988709;28;20044;-80
2022/11/22 01:08:26;;;;;;;9.43;2.58;;;;;;;;;;4987545;28;20056;-80
2022/11/22 01:10:56;;;;;;;6.00;2.60;;;;;;;;;;4987626;28;20022;-79
2022/11/22 01:13:22;;;;;;;7.13;2.95;;;;;;;;;;4981538;28;20056;-80
2022/11/22 01:15:47;;;;;;;6.65;2.72;;;;;;;;;;4989316;28;20655;-79
2022/11/22 01:18:12;;;;;;;6.43;2.55;;;;;;;;;;4987283;28;20034;-79
2022/11/22 01:20:39;;;;;;;7.35;2.95;;;;;;;;;;5010184;28;20034;-79
2022/11/22 01:23:05;;;;;;;6.13;2.42;;;;;;;;;;4983718;28;20054;-80
2022/11/22 01:25:30;;;;;;;6.70;2.60;;;;;;;;;;4988867;28;20422;-79
2022/11/22 01:27:55;;;;;;;7.25;2.67;;;;;;;;;;4990908;28;20036;-80
2022/11/22 01:30:21;;;;;;;5.88;2.47;;;;;;;;;;5006810;28;20099;-80
2022/11/22 01:32:46;;;;;;;4.32;2.30;;;;;;;;;;5000233;28;20050;-79
2022/11/22 01:35:11;;;;;;;5.20;2.67;;;;;;;;;;4986697;28;20018;-80
2022/11/22 01:37:37;;;;;;;6.13;2.70;;;;;;;;;;4988959;28;20034;-80
2022/11/22 01:40:02;;;;;;;3.70;2.10;;;;;;;;;;4988187;28;20064;-81
2022/11/22 01:42:51;;;;;;;5.22;2.65;;;;;;;;;;4997843;28;20054;-80
2022/11/22 01:45:29;;;;;;;7.28;2.10;;;;;;;;;;4988507;28;20025;-80
2022/11/22 01:47:57;;;;;;;5.65;2.15;;;;;;;;;;5009622;28;20022;-80
2022/11/22 01:50:24;;;;;;;5.25;1.92;;;;;;;;;;5002477;28;20097;-80
2022/11/22 01:52:49;;;;;;;5.50;2.20;;;;;;;;;;4987452;28;20541;-80
2022/11/22 01:55:14;;;;;;;5.25;2.05;;;;;;;;;;4989385;28;20022;-79
2022/11/22 01:57:42;;;;;;;6.35;2.38;;;;;;;;;;4985674;28;20026;-79
2022/11/22 02:00:14;;;;;;;5.88;2.00;;;;;;;;;;4986783;28;20022;-81
2022/11/22 02:02:40;;;;;;;3.47;1.80;;;;;;;;;;4985908;28;20034;-79
2022/11/22 02:05:09;;;;;;;8.27;2.42;;;;;;;;;;4987833;28;20322;-80
2022/11/22 02:07:51;;;;;;;3.95;1.70;;;;;;;;;;4988459;28;20025;-80
2022/11/22 02:10:19;;;;;;;6.20;2.00;;;;;;;;;;4985992;28;20422;-80
2022/11/22 02:12:45;;;;;;;4.50;1.77;;;;;;;;;;5004795;28;20056;-80
2022/11/22 02:15:11;;;;;;;5.85;1.67;;;;;;;;;;4986793;28;20033;-80
2022/11/22 02:17:36;;;;;;;6.60;1.75;;;;;;;;;;5003880;28;20115;-81
2022/11/22 02:20:02;;;;;;;5.82;1.75;;;;;;;;;;4989891;28;20482;-80
2022/11/22 02:22:39;;;;;;;8.38;1.98;;;;;;;;;;4990043;28;21710;-80
2022/11/22 02:25:29;;;;;;;5.43;1.73;;;;;;;;;;4985588;28;20030;-81
2022/11/22 02:27:55;;;;;;;9.40;2.20;;;;;;;;;;4982104;28;20017;-80
2022/11/22 02:30:20;;;;;;;4.95;1.63;;;;;;;;;;5008515;28;20140;-80
2022/11/22 02:32:45;;;;;;;5.63;1.95;;;;;;;;;;4987147;28;20018;-80
2022/11/22 02:35:19;;;;;;;7.53;1.80;;;;;;;;;;4987070;28;20026;-82
2022/11/22 02:37:46;;;;;;;4.97;1.70;;;;;;;;;;4984298;28;20125;-80
2022/11/22 02:40:14;;;;;;;5.80;2.00;;;;;;;;;;4988439;28;20151;-80
2022/11/22 02:42:47;;;;;;;8.35;1.85;;;;;;;;;;5002615;28;20048;-81
2022/11/22 02:45:12;;;;;;;5.55;1.88;;;;;;;;;;4984005;28;20390;-80
2022/11/22 02:47:38;;;;;;;5.88;1.45;;;;;;;;;;4981715;28;20039;-80
2022/11/22 02:50:03;;;;;;;6.65;1.58;;;;;;;;;;4986622;28;20060;-80
2022/11/22 02:52:29;;;;;;;6.57;1.75;;;;;;;;;;5002076;28;20029;-80
2022/11/22 02:54:54;;;;;;;7.13;1.55;;;;;;;;;;4988270;28;20038;-80
2022/11/22 02:57:19;;;;;;;5.47;1.40;;;;;;;;;;5000416;28;20030;-80
2022/11/22 02:59:45;;;;;;;3.60;1.15;;;;;;;;;;5002351;28;20088;-82
2022/11/22 03:02:10;;;;;;;8.85;1.60;;;;;;;;;;5003985;28;20072;-80
2022/11/22 03:04:35;;;;;;;7.38;1.42;;;;;;;;;;5002247;28;20037;-80
2022/11/22 03:07:01;;;;;;;8.48;1.55;;;;;;;;;;5005870;28;20030;-80
2022/11/22 03:09:27;;;;;;;7.38;1.63;;;;;;;;;;4986550;28;20037;-79
2022/11/22 03:11:53;;;;;;;5.35;1.25;;;;;;;;;;4986578;28;20034;-80
2022/11/22 03:14:18;;;;;;;6.60;1.42;;;;;;;;;;5006976;28;20100;-80
2022/11/22 03:16:46;;;;;;;4.80;1.08;;;;;;;;;;4989546;28;20126;-80
2022/11/22 03:19:12;;;;;;;7.20;1.55;;;;;;;;;;4987021;28;20472;-80
2022/11/22 03:21:39;;;;;;;4.95;1.33;;;;;;;;;;5005420;28;20057;-80
2022/11/22 03:24:05;;;;;;;10.15;1.98;;;;;;;;;;4987865;28;20136;-81
2022/11/22 03:26:31;;;;;;;4.65;1.17;;;;;;;;;;4994204;28;20478;-81
2022/11/22 03:28:57;;;;;;;6.00;1.33;;;;;;;;;;4991838;28;20108;-80
2022/11/22 03:31:22;;;;;;;5.35;1.30;;;;;;;;;;5005908;28;20159;-80
2022/11/22 03:33:47;;;;;;;3.97;1.10;;;;;;;;;;4988522;28;20038;-81
2022/11/22 03:36:12;;;;;;;8.55;1.40;;;;;;;;;;5010161;28;20044;-80
2022/11/22 03:38:38;;;;;;;6.15;1.40;;;;;;;;;;4990538;28;20030;-80
2022/11/22 03:41:03;;;;;;;9.15;1.80;;;;;;;;;;4989282;28;20037;-80
2022/11/22 03:43:29;;;;;;;6.28;1.20;;;;;;;;;;4983649;28;20026;-80
2022/11/22 03:45:54;;;;;;;5.38;1.30;;;;;;;;;;5011362;28;20478;-80
2022/11/22 03:48:20;;;;;;;7.47;1.38;;;;;;;;;;4990928;28;20113;-82
2022/11/22 03:50:45;;;;;;;10.90;1.77;;;;;;;;;;4990896;28;20033;-80
2022/11/22 03:53:11;;;;;;;6.10;1.35;;;;;;;;;;4987863;28;20025;-80
2022/11/22 03:55:36;;;;;;;5.90;1.33;;;;;;;;;;4991046;28;20112;-81
2022/11/22 03:58:02;;;;;;;5.97;1.75;;;;;;;;;;4986780;28;20030;-81
2022/11/22 04:00:27;;;;;;;6.65;1.00;;;;;;;;;;4988028;28;20487;-80
2022/11/22 04:02:53;;;;;;;5.15;1.15;;;;;;;;;;4988299;28;20080;-80
2022/11/22 04:05:18;;;;;;;7.70;1.30;;;;;;;;;;4985353;28;20096;-81
2022/11/22 04:07:43;;;;;;;5.20;1.60;;;;;;;;;;4988322;28;20064;-80
2022/11/22 04:10:09;;;;;;;3.22;0.98;;;;;;;;;;5000889;28;20080;-80
2022/11/22 04:12:34;;;;;;;4.10;1.15;;;;;;;;;;5009743;28;20022;-80
2022/11/22 04:15:06;;;;;;;8.05;1.27;;;;;;;;;;4984973;28;20027;-80
2022/11/22 04:17:40;;;;;;;4.65;1.13;;;;;;;;;;4987174;28;20030;-80
2022/11/22 04:23:13;;;;;;;3.40;1.02;;;;;;;;;;5006746;28;20422;-80
2022/11/22 04:25:41;;;;;;;8.10;1.30;;;;;;;;;;4994127;28;20034;-80
2022/11/22 04:28:07;;;;;;;4.32;0.90;;;;;;;;;;4991484;28;20033;-82
2022/11/22 04:33:17;;;;;;;7.72;1.17;;;;;;;;;;5006559;28;20029;-80
2022/11/22 04:35:44;;;;;;;7.38;1.85;;;;;;;;;;5007584;28;20061;-81
2022/11/22 04:38:10;;;;;;;6.57;1.25;;;;;;;;;;5007807;28;20089;-81
2022/11/22 04:40:36;;;;;;;3.50;1.17;;;;;;;;;;4993404;28;20032;-80
2022/11/22 04:45:46;;;;;;;4.00;1.00;;;;;;;;;;5007639;28;20056;-80
2022/11/22 04:48:12;;;;;;;4.70;1.50;;;;;;;;;;4989744;28;20033;-80
2022/11/22 04:53:23;;;;;;;6.40;1.13;;;;;;;;;;5002324;28;20517;-81
2022/11/22 04:55:49;;;;;;;6.05;1.15;;;;;;;;;;5008552;28;20057;-80
2022/11/22 04:58:14;;;;;;;6.35;1.17;;;;;;;;;;4987374;28;20025;-80
2022/11/22 05:00:40;;;;;;;4.97;1.23;;;;;;;;;;4989320;28;20037;-80
2022/11/22 05:03:06;;;;;;;8.48;1.33;;;;;;;;;;4989949;28;20029;-80
2022/11/22 05:05:39;;;;;;;3.30;0.90;;;;;;;;;;4983702;28;20081;-80
2022/11/22 05:08:05;;;;;;;6.55;0.98;;;;;;;;;;5003751;28;20022;-81
2022/11/22 05:13:16;;;;;;;7.43;1.33;;;;;;;;;;5008171;28;20114;-81
2022/11/22 05:15:42;;;;;;;7.15;1.27;;;;;;;;;;5003019;28;20490;-81
2022/11/22 05:18:07;;;;;;;4.78;1.20;;;;;;;;;;4997309;28;20065;-81
2022/11/22 05:20:32;;;;;;;3.92;1.00;;;;;;;;;;5006611;28;20029;-82
2022/11/22 05:25:42;;;;;;;3.92;1.30;;;;;;;;;;5000514;28;20041;-81
2022/11/22 05:28:07;;;;;;;4.63;1.13;;;;;;;;;;4982207;28;20026;-81
2022/11/22 05:30:32;;;;;;;7.65;1.55;;;;;;;;;;4984117;28;20036;-80
2022/11/22 05:32:58;;;;;;;7.45;1.33;;;;;;;;;;5005611;28;20431;-80
2022/11/22 05:35:23;;;;;;;6.25;1.50;;;;;;;;;;5004232;28;20576;-80
2022/11/22 05:37:48;;;;;;;4.75;1.17;;;;;;;;;;4984120;28;20052;-82
2022/11/22 05:40:14;;;;;;;5.72;1.15;;;;;;;;;;4986012;28;20036;-81
2022/11/22 05:42:39;;;;;;;5.22;1.02;;;;;;;;;;4982546;28;20030;-82
2022/11/22 05:45:05;;;;;;;5.75;1.13;;;;;;;;;;4986446;28;20053;-80
2022/11/22 05:47:35;;;;;;;6.03;1.20;;;;;;;;;;5004533;28;20033;-80
2022/11/22 05:50:01;;;;;;;3.88;1.10;;;;;;;;;;4980772;28;20041;-82
2022/11/22 05:52:26;;;;;;;5.68;1.08;;;;;;;;;;4982542;28;20030;-81
2022/11/22 05:54:51;;;;;;;2.97;1.20;;;;;;;;;;4990925;28;20040;-80
2022/11/22 05:57:16;;;;;;;6.28;1.15;;;;;;;;;;4989028;28;20474;-81
2022/11/22 05:59:42;;;;;;;5.15;1.13;;;;;;;;;;4980878;28;20029;-80
2022/11/22 06:02:07;;;;;;;3.58;1.10;;;;;;;;;;4979836;28;20029;-80
2022/11/22 06:04:33;;;;;;;4.80;1.10;;;;;;;;;;4975802;28;20073;-80
2022/11/22 06:06:58;;;;;;;5.57;1.33;;;;;;;;;;4983141;28;20022;-81
2022/11/22 06:09:24;;;;;;;6.85;1.30;;;;;;;;;;5000672;28;20339;-80
2022/11/22 06:11:49;;;;;;;7.82;1.63;;;;;;;;;;4985294;28;20053;-81
2022/11/22 06:14:14;;;;;;;5.88;1.10;;;;;;;;;;4999419;28;20216;-82
2022/11/22 06:16:40;;;;;;;4.47;1.40;;;;;;;;;;4988206;28;20103;-82
2022/11/22 06:19:05;;;;;;;4.13;1.05;;;;;;;;;;4980968;28;20060;-83
2022/11/22 06:21:30;;;;;;;4.60;1.10;;;;;;;;;;4985714;28;20022;-82
2022/11/22 06:23:56;;;;;;;4.68;1.02;;;;;;;;;;4983452;28;20049;-83
2022/11/22 06:26:22;;;;;;;5.18;1.10;;;;;;;;;;4979901;28;20041;-82
2022/11/22 06:28:48;;;;;;;6.65;1.17;;;;;;;;;;4988623;28;20033;-83
2022/11/22 06:31:24;;;;;;;3.95;0.93;;;;;;;;;;4986032;28;20026;-82
2022/11/22 06:33:51;;;;;;;5.25;1.33;;;;;;;;;;4989613;28;20112;-82
2022/11/22 06:36:19;;;;;;;3.13;1.08;;;;;;;;;;4981788;28;20025;-82
2022/11/22 06:38:45;;;;;;;4.00;1.17;;;;;;;;;;5008816;28;20525;-82
2022/11/22 06:41:14;;;;;;;7.20;1.40;;;;;;;;;;4988612;28;20053;-82
2022/11/22 06:43:41;;;;;;;3.55;0.98;;;;;;;;;;5003032;28;20486;-81
2022/11/22 06:46:07;;;;;;;7.38;1.20;;;;;;;;;;5000380;28;20599;-81
2022/11/22 06:48:34;;;;;;;4.40;1.00;;;;;;;;;;4999802;28;20025;-81
2022/11/22 06:51:15;;;;;;;3.35;0.98;;;;;;;;;;5000541;28;20663;-82
2022/11/22 06:53:40;;;;;;;3.28;1.10;;;;;;;;;;4984782;28;20041;-82
2022/11/22 06:56:14;;;;;;;8.35;1.60;;;;;;;;;;4986796;28;20052;-81
2022/11/22 06:58:41;;;;;;;4.22;1.00;;;;;;;;;;4986692;28;20030;-82
2022/11/22 07:01:14;;;;;;;5.97;1.17;;;;;;;;;;4986694;28;20508;-82
2022/11/22 07:03:40;;;;;;;8.80;1.70;;;;;;;;;;4983519;28;20080;-82
2022/11/22 07:06:07;;;;;;;5.78;1.30;;;;;;;;;;4987979;28;20040;-82
2022/11/22 07:08:34;;;;;;;4.32;1.10;;;;;;;;;;4987011;28;20021;-82
2022/11/22 07:11:08;;;;;;;4.18;1.30;;;;;;;;;;4986856;28;20022;-82
2022/11/22 07:13:34;;;;;;;6.20;1.13;;;;;;;;;;4989214;28;20026;-82
2022/11/22 07:16:02;;;;;;;8.07;1.45;;;;;;;;;;4985979;28;20056;-83
2022/11/22 07:18:27;;;;;;;6.53;1.73;;;;;;;;;;4990832;28;20430;-82
2022/11/22 07:21:02;;;;;;;6.50;1.30;;;;;;;;;;4984134;28;20033;-82
2022/11/22 07:23:29;;;;;;;3.35;1.15;;;;;;;;;;4985637;28;20149;-82
2022/11/22 07:25:54;;;;;;;3.63;1.33;;;;;;;;;;4986440;28;20479;-82
2022/11/22 07:28:20;;;;;;;7.93;1.33;;;;;;;;;;4984588;28;20023;-83
2022/11/22 07:30:45;;;;;;;6.75;1.33;;;;;;;;;;4989171;28;20113;-83
2022/11/22 07:33:11;;;;;;;5.28;2.00;;;;;;;;;;4989782;28;20058;-82
2022/11/22 07:35:36;;;;;;;4.75;1.33;;;;;;;;;;4981251;28;20077;-82
2022/11/22 07:38:02;;;;;;;3.25;1.10;;;;;;;;;;4981656;28;20114;-82
2022/11/22 07:40:28;;;;;;;4.28;1.13;;;;;;;;;;4985195;28;20099;-82
2022/11/22 07:42:53;;;;;;;4.22;1.40;;;;;;;;;;4986287;28;20097;-82
2022/11/22 07:45:18;;;;;;;4.38;1.25;;;;;;;;;;4985027;28;20123;-82
2022/11/22 07:47:44;;;;;;;4.57;1.35;;;;;;;;;;4984879;28;20045;-82
2022/11/22 07:50:09;;;;;;;5.05;1.40;;;;;;;;;;4982376;28;20037;-82
2022/11/22 07:52:35;;;;;;;4.63;1.10;;;;;;;;;;4980424;28;20046;-82
2022/11/22 07:55:00;;;;;;;4.10;1.13;;;;;;;;;;4984675;28;20101;-82
2022/11/22 07:57:25;;;;;;;5.32;1.50;;;;;;;;;;4980626;28;20113;-83
2022/11/22 07:59:51;;;;;;;4.95;1.30;;;;;;;;;;4982758;28;20054;-82
2022/11/22 08:02:16;;;;;;;7.55;1.05;;;;;;;;;;4982239;28;20026;-82
2022/11/22 08:04:42;;;;;;;4.78;1.30;;;;;;;;;;4981737;28;20065;-82
2022/11/22 08:07:08;;;;;;;6.22;1.45;;;;;;;;;;4983211;28;20058;-82
2022/11/22 08:09:33;;;;;;;4.72;1.30;;;;;;;;;;4983994;28;20038;-82
2022/11/22 08:11:59;;;;;;;7.03;1.27;;;;;;;;;;4980505;28;20030;-83
2022/11/22 08:14:25;;;;;;;4.13;1.40;;;;;;;;;;4981206;28;20122;-82
2022/11/22 08:16:50;;;;;;;3.90;1.20;;;;;;;;;;4984408;28;20491;-82
2022/11/22 08:19:16;;;;;;;3.13;1.13;;;;;;;;;;4985755;28;20033;-82
2022/11/22 08:21:47;;;;;;;3.88;1.30;;;;;;;;;;4980206;28;20030;-82
2022/11/22 08:24:14;;;;;;;2.53;1.08;;;;;;;;;;5004484;28;20033;-82
2022/11/22 08:26:39;;;;;;;6.88;1.33;;;;;;;;;;4989657;28;20029;-83
2022/11/22 08:29:10;;;;;;;3.78;1.25;;;;;;;;;;4985767;28;20360;-82
2022/11/22 08:31:36;;;;;;;5.15;1.23;;;;;;;;;;4990363;28;20033;-82
2022/11/22 08:34:02;;;;;;;3.72;1.15;;;;;;;;;;5017655;28;20538;-82
2022/11/22 08:36:28;;;;;;;5.43;1.73;;;;;;;;;;4992258;28;20038;-82
2022/11/22 08:38:53;;;;;;;6.15;1.50;;;;;;;;;;4993314;28;20529;-82
2022/11/22 08:41:19;;;;;;;4.10;1.40;;;;;;;;;;4984625;28;20099;-82
2022/11/22 08:43:44;;;;;;;4.45;1.40;;;;;;;;;;4992500;28;20536;-82
2022/11/22 08:46:10;;;;;;;5.07;1.38;;;;;;;;;;4999050;28;20413;-82
2022/11/22 08:48:36;;;;;;;3.72;1.20;;;;;;;;;;4985099;28;20034;-82
2022/11/22 08:51:08;;;;;;;5.63;1.63;;;;;;;;;;4983413;28;20470;-82
2022/11/22 08:53:36;;;;;;;6.95;1.38;;;;;;;;;;4992128;28;21884;-82
2022/11/22 08:56:02;;;;;;;5.53;1.52;;;;;;;;;;5009306;28;20488;-83
2022/11/22 08:58:29;;;;;;;2.72;1.00;;;;;;;;;;4992725;28;20490;-83
2022/11/22 09:00:55;;;;;;;2.95;1.23;;;;;;;;;;5005606;28;20483;-82
2022/11/22 09:03:20;;;;;;;5.32;1.30;;;;;;;;;;4991532;28;20040;-82
2022/11/22 09:05:46;;;;;;;5.72;1.30;;;;;;;;;;4988452;28;20438;-82
2022/11/22 09:08:11;;;;;;;8.55;1.48;;;;;;;;;;5001370;28;20026;-83
2022/11/22 09:10:36;;;;;;;3.63;1.42;;;;;;;;;;4993961;28;20025;-82
2022/11/22 09:13:02;;;;;;;3.95;1.35;;;;;;;;;;4990387;28;20044;-82
2022/11/22 09:15:27;;;;;;;5.25;1.38;;;;;;;;;;4992124;28;20541;-83
2022/11/22 09:17:59;;;;;;;9.35;1.15;;;;;;;;;;4986105;28;20025;-82
2022/11/22 09:20:25;;;;;;;6.97;1.65;;;;;;;;;;4983289;28;20510;-82
2022/11/22 09:22:50;;;;;;;6.78;1.40;;;;;;;;;;5007520;28;20046;-82
2022/11/22 09:25:15;;;;;;;7.07;1.45;;;;;;;;;;5012277;28;20080;-82
2022/11/22 09:27:41;;;;;;;3.55;1.10;;;;;;;;;;5008513;28;20032;-83
2022/11/22 09:30:07;;;;;;;5.70;1.30;;;;;;;;;;4985907;28;20032;-83
2022/11/22 09:32:32;;;;;;;7.53;1.55;;;;;;;;;;4987313;28;20014;-83
2022/11/22 09:34:57;;;;;;;3.83;1.30;;;;;;;;;;4993275;28;20033;-83
2022/11/22 09:37:23;;;;;;;3.08;1.08;;;;;;;;;;5009537;28;20057;-84
2022/11/22 09:39:48;;;;;;;4.15;1.08;;;;;;;;;;4987031;28;20025;-83
2022/11/22 09:42:22;;;;;;;4.65;1.20;;;;;;;;;;4991842;28;20030;-82
2022/11/22 09:45:23;;;;;;;3.85;1.10;;;;;;;;;;4984883;28;20026;-83
2022/11/22 09:48:14;;;;;;;5.50;1.42;;;;;;;;;;4983639;28;20028;-83
2022/11/22 09:50:39;;;;;;;5.15;1.40;;;;;;;;;;4994748;28;20386;-82
2022/11/22 09:53:12;;;;;;;4.28;1.45;;;;;;;;;;4992220;28;20029;-82
2022/11/22 09:55:45;;;;;;;6.25;1.45;;;;;;;;;;5003018;28;20478;-82
2022/11/22 09:58:39;;;;;;;5.00;1.63;;;;;;;;;;4985043;28;20026;-82
2022/11/22 10:01:20;;;;;;;6.13;1.38;;;;;;;;;;5003295;28;20057;-83
2022/11/22 10:03:51;;;;;;;7.53;1.13;;;;;;;;;;4985581;28;20022;-83
2022/11/22 10:06:39;;;;;;;6.85;1.50;;;;;;;;;;4994136;28;20088;-82
2022/11/22 10:09:17;;;;;;;6.05;1.30;;;;;;;;;;4986851;28;20034;-83
2022/11/22 10:11:52;;;;;;;5.88;1.60;;;;;;;;;;4988616;28;20040;-83
2022/11/22 10:14:45;;;;;;;5.75;1.35;;;;;;;;;;4988369;28;20029;-83
2022/11/22 10:17:20;;;;;;;4.22;1.30;;;;;;;;;;5008786;28;20474;-83
2022/11/22 10:20:13;;;;;;;5.80;1.70;;;;;;;;;;4981413;28;20128;-82
2022/11/22 10:22:39;;;;;;;3.72;1.20;;;;;;;;;;4994004;28;20033;-83
2022/11/22 10:25:37;;;;;;;4.35;1.30;;;;;;;;;;4987241;28;20524;-82
2022/11/22 10:28:16;;;;;;;7.00;1.20;;;;;;;;;;4987310;28;20437;-82
2022/11/22 10:30:51;;;;;;;4.53;1.27;;;;;;;;;;4984890;28;20121;-83
2022/11/22 10:33:28;;;;;;;4.03;1.67;;;;;;;;;;4984654;28;20398;-83
2022/11/22 10:36:19;;;;;;;4.00;1.17;;;;;;;;;;4984139;28;20037;-83
2022/11/22 10:38:45;;;;;;;8.38;1.23;;;;;;;;;;5005702;28;20401;-83
2022/11/22 10:41:37;;;;;;;2.95;1.15;;;;;;;;;;4991653;28;20029;-82
2022/11/22 10:44:21;;;;;;;3.85;1.10;;;;;;;;;;4983889;28;20142;-82
2022/11/22 10:47:12;;;;;;;5.00;1.40;;;;;;;;;;4999443;28;20034;-83
2022/11/22 10:49:56;;;;;;;3.53;1.17;;;;;;;;;;4983622;28;20524;-82
2022/11/22 10:52:43;;;;;;;3.05;1.00;;;;;;;;;;4993081;28;20520;-82
2022/11/22 10:55:18;;;;;;;4.18;1.20;;;;;;;;;;4985324;28;20053;-82
2022/11/22 10:58:00;;;;;;;2.10;0.93;;;;;;;;;;4985944;28;20489;-83
2022/11/22 11:00:30;;;;;;;4.28;1.30;;;;;;;;;;4990304;28;20063;-83
2022/11/22 11:03:10;;;;;;;3.25;1.15;;;;;;;;;;4983615;28;20053;-83
2022/11/22 11:06:03;;;;;;;3.85;0.93;;;;;;;;;;5002224;28;20121;-82
2022/11/22 11:08:40;;;;;;;5.25;0.90;;;;;;;;;;5005217;28;20144;-82
2022/11/22 11:11:05;;;;;;;2.47;1.08;;;;;;;;;;4982430;28;20501;-83
2022/11/22 11:13:36;;;;;;;1.25;0.73;;;;;;;;;;4986677;28;20030;-83
2022/11/22 11:16:07;;;;;;;5.05;1.10;;;;;;;;;;4998521;28;20034;-83
2022/11/22 11:18:45;;;;;;;3.58;1.10;;;;;;;;;;4984858;28;20054;-83
2022/11/22 11:21:12;;;;;;;2.45;1.25;;;;;;;;;;5000622;28;20708;-84
2022/11/22 11:23:37;;;;;;;2.42;1.00;;;;;;;;;;4981001;28;20502;-84
2022/11/22 11:26:27;;;;;;;3.13;1.10;;;;;;;;;;4989283;28;20038;-83
2022/11/22 11:29:27;;;;;;;3.65;1.25;;;;;;;;;;4983410;28;20041;-84
2022/11/22 11:32:15;;;;;;;1.60;0.90;;;;;;;;;;5004522;28;20034;-84
2022/11/22 11:34:51;;;;;;;1.90;1.00;;;;;;;;;;4990547;28;20026;-84
2022/11/22 11:37:31;;;;;;;4.65;1.02;;;;;;;;;;4983604;28;20505;-83
2022/11/22 11:39:56;;;;;;;2.15;1.05;;;;;;;;;;4999146;28;20018;-83
2022/11/22 11:42:31;;;;;;;3.13;1.10;;;;;;;;;;4987830;28;20022;-84
2022/11/22 11:45:24;;;;;;;1.85;1.10;;;;;;;;;;4988019;28;20041;-84
2022/11/22 11:47:50;;;;;;;3.20;1.33;;;;;;;;;;5009767;28;20018;-83
2022/11/22 11:50:21;;;;;;;2.65;1.00;;;;;;;;;;4992507;28;20030;-84
2022/11/22 11:52:55;;;;;;;3.05;1.25;;;;;;;;;;4993432;28;20064;-83
2022/11/22 11:55:21;;;;;;;2.30;1.20;;;;;;;;;;4992216;28;20386;-83
2022/11/22 11:57:48;;;;;;;1.90;0.90;;;;;;;;;;4994025;28;20034;-85
2022/11/22 12:00:25;;;;;;;2.08;1.00;;;;;;;;;;5012047;28;20101;-83
2022/11/22 12:02:56;;;;;;;3.92;1.20;;;;;;;;;;5012988;28;20547;-83
2022/11/22 12:05:21;;;;;;;1.98;1.00;;;;;;;;;;5014692;28;20053;-84
2022/11/22 12:07:48;;;;;;;2.38;1.05;;;;;;;;;;5009467;28;20104;-84
2022/11/22 12:10:46;;;;;;;2.72;1.17;;;;;;;;;;4989438;28;20421;-84
2022/11/22 12:13:29;;;;;;;2.60;1.00;;;;;;;;;;4993696;28;20040;-84
2022/11/22 12:16:09;;;;;;;3.33;1.20;;;;;;;;;;4993566;28;20033;-85
2022/11/22 12:18:51;;;;;;;3.17;0.98;;;;;;;;;;5003468;28;20141;-84
2022/11/22 12:21:51;;;;;;;1.40;0.80;;;;;;;;;;4995711;28;20034;-84
2022/11/22 12:24:20;;;;;;;1.70;1.00;;;;;;;;;;4991101;28;20446;-84
2022/11/22 12:26:45;;;;;;;1.88;0.95;;;;;;;;;;4999215;28;20045;-84
2022/11/22 12:29:13;;;;;;;2.65;0.80;;;;;;;;;;5009473;28;20430;-84
2022/11/22 12:31:43;;;;;;;1.73;0.88;;;;;;;;;;5001620;28;20034;-84
2022/11/22 12:34:24;;;;;;;2.55;0.90;;;;;;;;;;5005501;28;20022;-83
2022/11/22 12:37:11;;;;;;;4.13;1.13;;;;;;;;;;4994130;28;20025;-85
2022/11/22 12:39:36;;;;;;;1.13;0.70;;;;;;;;;;5008700;28;20052;-85
2022/11/22 12:42:14;;;;;;;1.10;0.70;;;;;;;;;;4990662;28;20026;-84
2022/11/22 12:44:47;;;;;;;3.40;0.85;;;;;;;;;;5006756;28;20044;-83
2022/11/22 12:47:18;;;;;;;1.80;0.80;;;;;;;;;;4983875;28;20382;-85
2022/11/22 12:49:46;;;;;;;1.50;0.77;;;;;;;;;;5011273;28;20026;-83
2022/11/22 12:52:23;;;;;;;3.67;0.80;;;;;;;;;;5005512;28;20042;-84
2022/11/22 12:54:51;;;;;;;1.75;0.70;;;;;;;;;;4995395;28;20562;-85
2022/11/22 12:57:23;;;;;;;3.22;0.70;;;;;;;;;;4987780;28;20124;-83
2022/11/22 13:00:04;;;;;;;2.20;0.80;;;;;;;;;;4991944;28;20026;-84
2022/11/22 13:02:39;;;;;;;2.88;0.70;;;;;;;;;;4985691;28;20033;-84
2022/11/22 13:05:20;;;;;;;2.92;0.85;;;;;;;;;;5002398;28;20034;-84
2022/11/22 13:08:04;;;;;;;1.75;0.80;;;;;;;;;;5009931;28;20506;-84
2022/11/22 13:10:38;;;;;;;3.83;1.58;;;;;;;;;;4991080;28;20530;-85
2022/11/22 13:13:12;;;;;;;2.17;1.17;;;;;;;;;;5002507;28;20022;-85
2022/11/22 13:15:39;;;;;;;1.92;0.82;;;;;;;;;;4990916;28;20034;-84
2022/11/22 13:18:09;;;;;;;1.67;0.90;;;;;;;;;;4990848;28;20486;-84
2022/11/22 13:20:39;;;;;;;1.00;0.73;;;;;;;;;;5010290;28;20053;-84
2022/11/22 13:23:25;;;;;;;1.83;0.80;;;;;;;;;;4993929;28;20389;-84
2022/11/22 13:25:59;;;;;;;5.22;0.90;;;;;;;;;;5009734;28;20394;-84
2022/11/22 13:28:28;;;;;;;1.25;0.60;;;;;;;;;;4995627;28;20079;-84
2022/11/22 13:31:09;;;;;;;1.00;0.60;;;;;;;;;;4984165;28;20394;-85
2022/11/22 13:33:36;;;;;;;1.65;0.70;;;;;;;;;;5010249;28;20026;-84
2022/11/22 13:36:26;;;;;;;1.33;0.80;;;;;;;;;;5001307;28;20497;-84
2022/11/22 13:38:54;;;;;;;2.95;1.52;;;;;;;;;;4990798;28;20026;-85
2022/11/22 13:41:36;;;;;;;2.03;1.10;;;;;;;;;;4991268;28;20113;-84
2022/11/22 13:44:22;;;;;;;1.38;0.80;;;;;;;;;;4992558;28;20104;-84
2022/11/22 13:46:56;;;;;;;1.42;0.70;;;;;;;;;;4988411;28;20030;-84
2022/11/22 13:49:33;;;;;;;1.70;0.90;;;;;;;;;;4982400;28;20054;-84
2022/11/22 13:52:19;;;;;;;2.80;0.77;;;;;;;;;;5004272;28;20392;-84
2022/11/22 13:54:56;;;;;;;0.63;0.40;;;;;;;;;;4992394;28;20049;-85
2022/11/22 13:57:38;;;;;;;0.60;0.43;;;;;;;;;;4986898;28;20390;-85
2022/11/22 14:00:10;;;;;;;2.15;0.90;;;;;;;;;;4992451;28;20064;-84
2022/11/22 14:02:36;;;;;;;1.52;0.63;;;;;;;;;;4994412;28;20059;-84
2022/11/22 14:05:02;;;;;;;2.33;0.85;;;;;;;;;;4989131;28;20080;-85
2022/11/22 14:07:36;;;;;;;1.83;0.90;;;;;;;;;;4984018;28;20030;-85
2022/11/22 14:10:57;;;;;;;2.42;1.10;;;;;;;;;;5002164;28;20083;-86
2022/11/22 14:13:28;;;;;;;3.40;1.23;;;;;;;;;;5003084;28;20076;-86
2022/11/22 14:16:03;;;;;;;1.20;0.70;;;;;;;;;;4991454;28;20024;-85
2022/11/22 14:19:08;;;;;;;1.30;0.75;;;;;;;;;;4983974;28;20038;-86
2022/11/22 14:22:01;;;;;;;1.88;0.70;;;;;;;;;;4952212;28;20078;-86
2022/11/22 14:24:49;;;;;;;2.15;0.85;;;;;;;;;;4992815;28;20053;-85
2022/11/22 14:27:56;;;;;;;2.60;1.27;;;;;;;;;;4988707;28;20168;-86
2022/11/22 14:30:38;;;;;;;2.78;1.30;;;;;;;;;;4984599;28;20030;-85
2022/11/22 14:33:13;;;;;;;1.75;0.90;;;;;;;;;;4989747;28;20438;-86
2022/11/22 14:36:16;;;;;;;4.15;1.15;;;;;;;;;;4988855;28;20032;-85
2022/11/22 14:38:42;;;;;;;3.60;1.40;;;;;;;;;;5004667;28;20390;-85
2022/11/22 14:41:29;;;;;;;2.20;0.93;;;;;;;;;;4995895;28;20029;-85
2022/11/22 14:44:00;;;;;;;1.08;0.50;;;;;;;;;;5015785;28;20031;-85
2022/11/22 14:46:29;;;;;;;2.78;1.27;;;;;;;;;;4988616;28;20482;-85
2022/11/22 14:49:12;;;;;;;2.95;1.27;;;;;;;;;;5008349;28;20577;-85
2022/11/22 14:51:38;;;;;;;2.42;0.80;;;;;;;;;;4998704;28;20032;-86
2022/11/22 14:54:16;;;;;;;2.88;1.35;;;;;;;;;;4988087;28;20355;-85
2022/11/22 14:56:43;;;;;;;1.40;0.68;;;;;;;;;;4984476;28;20045;-85
2022/11/22 14:59:27;;;;;;;4.65;1.77;;;;;;;;;;5008001;28;21626;-85
2022/11/22 15:02:22;;;;;;;;;;;;;;;;;;5010730;28;20026;-85
2022/11/22 15:05:08;;;;;;;1.45;0.70;;;;;;;;;;4986032;28;19917;-85
2022/11/22 15:07:58;;;;;;;2.97;0.70;;;;;;;;;;4999685;28;20030;-86
2022/11/22 15:10:52;;;;;;;1.60;1.00;;;;;;;;;;4988420;28;20025;-85
2022/11/22 15:13:32;;;;;;;1.55;0.80;;;;;;;;;;4987136;28;20406;-85
2022/11/22 15:16:00;;;;;;;1.10;0.70;;;;;;;;;;5004633;28;20116;-86
2022/11/22 15:18:45;;;;;;;2.35;0.80;;;;;;;;;;4987422;28;20032;-85
2022/11/22 15:21:33;;;;;;;2.10;0.95;;;;;;;;;;4987361;28;20026;-85